Time;durP1;ratioP1;P1;durP2;ratioP2;P2;SDS_P1;SDS_P2;PMS_P1;PMS_P2;Temp;Humidity;BMP_temperature;BMP_pressure;BME280_temperature;BME280_humidity;BME280_pressure;Samples;Min_cycle;Max_cycle;Signal;HPM_P1;HPM_P2
2023/06/19 00:01:09;;;;;;;13.80;8.38;;;;;;;;;;5116759;28;20198;-70
2023/06/19 00:03:38;;;;;;;16.88;9.57;;;;;;;;;;5116368;28;20198;-70
2023/06/19 00:06:06;;;;;;;16.70;10.48;;;;;;;;;;5116517;28;20668;-70
2023/06/19 00:08:33;;;;;;;17.85;10.18;;;;;;;;;;5116182;28;20641;-70
2023/06/19 00:11:01;;;;;;;17.45;12.23;;;;;;;;;;5116394;28;20198;-70
2023/06/19 00:13:28;;;;;;;20.13;12.80;;;;;;;;;;5116071;28;20744;-70
2023/06/19 00:16:00;;;;;;;15.95;11.60;;;;;;;;;;5116155;28;20198;-70
2023/06/19 00:18:28;;;;;;;16.52;11.35;;;;;;;;;;5116524;28;20202;-70
2023/06/19 00:20:56;;;;;;;21.05;12.77;;;;;;;;;;5116120;28;20645;-70
2023/06/19 00:23:23;;;;;;;16.90;11.95;;;;;;;;;;5116240;28;20259;-70
2023/06/19 00:25:50;;;;;;;23.35;13.40;;;;;;;;;;5115900;28;20730;-69
2023/06/19 00:28:19;;;;;;;19.48;13.55;;;;;;;;;;5116083;28;20200;-70
2023/06/19 00:30:47;;;;;;;18.15;12.43;;;;;;;;;;5097859;28;20194;-70
2023/06/19 00:33:14;;;;;;;17.17;12.18;;;;;;;;;;5097890;28;20308;-70
2023/06/19 00:35:41;;;;;;;19.35;13.02;;;;;;;;;;5131834;27;20228;-69
2023/06/19 00:38:09;;;;;;;18.45;13.15;;;;;;;;;;5115596;28;20209;-69
2023/06/19 00:40:37;;;;;;;17.23;12.40;;;;;;;;;;5131745;27;20671;-70
2023/06/19 00:43:04;;;;;;;17.42;11.90;;;;;;;;;;5115731;28;20202;-71
2023/06/19 00:45:31;;;;;;;18.98;11.15;;;;;;;;;;5115233;28;20212;-70
2023/06/19 00:47:59;;;;;;;19.15;11.57;;;;;;;;;;5115693;28;20247;-70
2023/06/19 00:50:29;;;;;;;14.85;11.07;;;;;;;;;;5115419;28;20551;-71
2023/06/19 00:52:58;;;;;;;17.98;12.38;;;;;;;;;;5121693;27;20240;-71
2023/06/19 00:55:31;;;;;;;17.55;12.02;;;;;;;;;;5118397;27;20205;-71
2023/06/19 00:58:00;;;;;;;16.63;11.48;;;;;;;;;;5101373;27;20201;-71
2023/06/19 01:00:27;;;;;;;15.48;11.10;;;;;;;;;;5100929;27;20193;-71
2023/06/19 01:02:56;;;;;;;16.05;11.38;;;;;;;;;;5117687;27;20258;-71
2023/06/19 01:05:24;;;;;;;19.52;11.45;;;;;;;;;;5135578;27;20367;-71
2023/06/19 01:08:12;;;;;;;17.02;10.32;;;;;;;;;;5100815;27;20211;-70
2023/06/19 01:10:53;;;;;;;14.10;10.95;;;;;;;;;;5135535;27;20201;-71
2023/06/19 01:13:53;;;;;;;17.98;10.05;;;;;;;;;;5135771;27;20209;-71
2023/06/19 01:16:22;;;;;;;14.48;10.18;;;;;;;;;;5112336;27;20571;-70
2023/06/19 01:18:50;;;;;;;14.30;10.57;;;;;;;;;;5117481;27;20205;-70
2023/06/19 01:21:18;;;;;;;15.38;10.93;;;;;;;;;;5117336;27;20201;-70
2023/06/19 01:23:46;;;;;;;15.38;11.02;;;;;;;;;;5135359;27;20240;-70
2023/06/19 01:26:16;;;;;;;13.43;10.32;;;;;;;;;;5135448;27;20246;-68
2023/06/19 01:28:44;;;;;;;19.08;9.57;;;;;;;;;;5135091;27;20288;-71
2023/06/19 01:31:25;;;;;;;11.90;9.25;;;;;;;;;;5117352;27;20205;-71
2023/06/19 01:33:54;;;;;;;14.85;9.43;;;;;;;;;;5117112;27;20201;-70
2023/06/19 01:36:21;;;;;;;12.38;9.10;;;;;;;;;;5116919;27;20209;-71
2023/06/19 01:38:51;;;;;;;15.43;9.07;;;;;;;;;;5135029;27;20660;-70
2023/06/19 01:41:19;;;;;;;16.02;9.65;;;;;;;;;;5116724;27;20201;-70
2023/06/19 01:43:46;;;;;;;13.82;9.50;;;;;;;;;;5116426;27;20205;-71
2023/06/19 01:46:14;;;;;;;16.05;9.93;;;;;;;;;;5116755;27;20208;-71
2023/06/19 01:48:41;;;;;;;14.15;9.13;;;;;;;;;;5134584;27;20227;-70
2023/06/19 01:51:08;;;;;;;13.45;9.38;;;;;;;;;;5116662;27;20227;-68
2023/06/19 01:53:38;;;;;;;12.05;8.70;;;;;;;;;;5116766;27;20229;-72
2023/06/19 01:56:06;;;;;;;12.77;8.65;;;;;;;;;;5134543;27;20213;-71
2023/06/19 01:58:33;;;;;;;15.25;8.27;;;;;;;;;;5132784;27;20224;-71
2023/06/19 02:01:00;;;;;;;13.02;7.13;;;;;;;;;;5134339;27;20210;-70
2023/06/19 02:03:28;;;;;;;9.48;7.53;;;;;;;;;;5133603;27;20257;-70
2023/06/19 02:05:55;;;;;;;12.48;7.90;;;;;;;;;;5133231;27;20290;-67
2023/06/19 02:08:22;;;;;;;11.52;7.75;;;;;;;;;;5133935;27;20208;-71
2023/06/19 02:10:49;;;;;;;11.10;7.70;;;;;;;;;;5134294;27;20209;-70
2023/06/19 02:13:16;;;;;;;10.23;7.57;;;;;;;;;;5134283;27;20625;-71
2023/06/19 02:15:44;;;;;;;10.48;7.57;;;;;;;;;;5150380;27;20204;-71
2023/06/19 02:18:11;;;;;;;13.35;7.10;;;;;;;;;;5134492;27;20208;-71
2023/06/19 02:20:39;;;;;;;10.70;7.57;;;;;;;;;;5115924;28;20615;-71
2023/06/19 02:23:06;;;;;;;9.02;6.53;;;;;;;;;;5134532;28;20231;-72
2023/06/19 02:25:35;;;;;;;10.88;7.25;;;;;;;;;;5134194;28;20206;-72
2023/06/19 02:28:03;;;;;;;10.90;7.75;;;;;;;;;;5134616;28;20209;-70
2023/06/19 02:30:30;;;;;;;11.65;7.88;;;;;;;;;;5115903;28;20712;-71
2023/06/19 02:32:57;;;;;;;9.00;6.78;;;;;;;;;;5115711;28;20217;-71
2023/06/19 02:35:25;;;;;;;11.98;7.60;;;;;;;;;;5134759;28;20202;-71
2023/06/19 02:37:55;;;;;;;12.32;7.32;;;;;;;;;;5134383;28;20204;-71
2023/06/19 02:40:22;;;;;;;10.63;7.38;;;;;;;;;;5134179;28;20205;-71
2023/06/19 02:42:49;;;;;;;10.07;7.28;;;;;;;;;;5134449;28;20209;-71
2023/06/19 02:45:17;;;;;;;8.27;6.30;;;;;;;;;;5134418;28;20644;-71
2023/06/19 02:47:44;;;;;;;8.85;6.57;;;;;;;;;;5134526;28;20202;-71
2023/06/19 02:50:11;;;;;;;8.30;6.28;;;;;;;;;;5116388;28;20201;-71
2023/06/19 02:52:38;;;;;;;11.45;6.15;;;;;;;;;;5134394;28;20610;-71
2023/06/19 02:55:07;;;;;;;11.57;6.53;;;;;;;;;;5116015;28;20254;-71
2023/06/19 02:57:34;;;;;;;9.05;6.00;;;;;;;;;;5116094;28;20194;-70
2023/06/19 03:00:05;;;;;;;10.35;6.10;;;;;;;;;;5115976;28;20213;-71
2023/06/19 03:02:33;;;;;;;9.68;7.05;;;;;;;;;;5134124;28;20229;-71
2023/06/19 03:05:00;;;;;;;9.65;6.60;;;;;;;;;;5115622;28;20620;-71
2023/06/19 03:07:28;;;;;;;8.45;6.20;;;;;;;;;;5116230;28;20201;-71
2023/06/19 03:09:56;;;;;;;9.43;6.82;;;;;;;;;;5136934;27;20212;-69
2023/06/19 03:12:23;;;;;;;8.93;5.88;;;;;;;;;;5138115;27;20595;-71
2023/06/19 03:14:50;;;;;;;9.45;6.50;;;;;;;;;;5119915;27;20224;-71
2023/06/19 03:17:17;;;;;;;7.80;6.28;;;;;;;;;;5137860;27;20656;-72
2023/06/19 03:19:45;;;;;;;7.07;6.28;;;;;;;;;;5119574;27;20201;-71
2023/06/19 03:22:12;;;;;;;9.27;5.85;;;;;;;;;;5119735;27;20228;-71
2023/06/19 03:24:39;;;;;;;7.63;6.57;;;;;;;;;;5119373;27;20212;-71
2023/06/19 03:27:19;;;;;;;11.77;6.93;;;;;;;;;;5115511;27;20194;-70
2023/06/19 03:29:47;;;;;;;9.38;7.22;;;;;;;;;;5117763;27;20266;-71
2023/06/19 03:32:20;;;;;;;13.25;6.97;;;;;;;;;;5123396;27;20648;-70
2023/06/19 03:34:48;;;;;;;8.88;6.68;;;;;;;;;;5117738;27;20218;-71
2023/06/19 03:37:16;;;;;;;10.13;7.85;;;;;;;;;;5118934;27;20205;-71
2023/06/19 03:39:43;;;;;;;10.85;7.20;;;;;;;;;;5116418;27;20648;-71
2023/06/19 03:42:13;;;;;;;10.50;7.63;;;;;;;;;;5114973;27;20251;-71
2023/06/19 03:44:41;;;;;;;10.55;7.70;;;;;;;;;;5118453;27;20213;-72
2023/06/19 03:47:08;;;;;;;11.27;7.45;;;;;;;;;;5117107;27;20240;-71
2023/06/19 03:49:36;;;;;;;8.93;6.50;;;;;;;;;;5118367;27;20205;-71
2023/06/19 03:52:03;;;;;;;9.25;7.00;;;;;;;;;;5136743;27;20644;-71
2023/06/19 03:54:31;;;;;;;9.10;6.40;;;;;;;;;;5135245;27;20270;-72
2023/06/19 03:56:59;;;;;;;8.77;6.60;;;;;;;;;;5118406;27;20660;-71
2023/06/19 03:59:27;;;;;;;10.23;7.72;;;;;;;;;;5136542;27;20189;-71
2023/06/19 04:01:54;;;;;;;9.35;7.65;;;;;;;;;;5131824;27;20236;-72
2023/06/19 04:04:22;;;;;;;9.68;7.57;;;;;;;;;;5106693;28;20234;-70
2023/06/19 04:06:49;;;;;;;11.15;8.30;;;;;;;;;;5111761;27;20232;-70
2023/06/19 04:09:16;;;;;;;9.95;7.55;;;;;;;;;;5136047;27;20548;-72
2023/06/19 04:11:43;;;;;;;12.48;8.18;;;;;;;;;;5135221;27;20221;-71
2023/06/19 04:14:12;;;;;;;11.48;7.93;;;;;;;;;;5117630;27;20229;-69
2023/06/19 04:16:39;;;;;;;14.70;9.27;;;;;;;;;;5135398;27;20228;-61
2023/06/19 04:19:06;;;;;;;13.77;9.40;;;;;;;;;;5136095;27;20590;-63
2023/06/19 04:21:33;;;;;;;13.57;10.70;;;;;;;;;;5135084;27;20771;-64
2023/06/19 04:24:00;;;;;;;14.98;10.95;;;;;;;;;;5133894;27;20559;-65
2023/06/19 04:26:27;;;;;;;15.60;11.10;;;;;;;;;;5134815;27;20728;-66
2023/06/19 04:28:56;;;;;;;13.63;10.68;;;;;;;;;;5135705;27;20233;-66
2023/06/19 04:31:23;;;;;;;15.40;11.13;;;;;;;;;;5135464;27;20217;-66
2023/06/19 04:33:51;;;;;;;15.00;10.80;;;;;;;;;;5106613;28;20684;-68
2023/06/19 04:36:18;;;;;;;17.60;11.50;;;;;;;;;;5115075;28;20253;-62
2023/06/19 04:38:45;;;;;;;16.90;12.05;;;;;;;;;;5129408;27;20224;-69
2023/06/19 04:41:12;;;;;;;15.40;11.43;;;;;;;;;;5135678;27;20321;-66
2023/06/19 04:43:41;;;;;;;18.63;12.07;;;;;;;;;;5135512;27;20229;-65
2023/06/19 04:46:08;;;;;;;15.40;11.63;;;;;;;;;;5134830;27;20217;-68
2023/06/19 04:48:36;;;;;;;15.93;10.85;;;;;;;;;;5134486;27;20217;-67
2023/06/19 04:51:03;;;;;;;15.65;11.23;;;;;;;;;;5134417;27;20691;-64
2023/06/19 04:53:30;;;;;;;14.40;11.70;;;;;;;;;;5115575;27;20229;-70
2023/06/19 04:55:57;;;;;;;14.27;10.38;;;;;;;;;;5133257;27;20918;-63
2023/06/19 04:58:28;;;;;;;13.32;10.50;;;;;;;;;;5130343;27;20220;-66
2023/06/19 05:00:55;;;;;;;14.88;9.73;;;;;;;;;;5133356;27;20217;-67
2023/06/19 05:03:23;;;;;;;12.52;9.05;;;;;;;;;;5134015;27;20250;-72
2023/06/19 05:05:50;;;;;;;11.38;8.40;;;;;;;;;;5133147;27;20307;-67
2023/06/19 05:08:18;;;;;;;12.77;8.13;;;;;;;;;;5134424;27;20217;-71
2023/06/19 05:10:45;;;;;;;12.35;8.77;;;;;;;;;;5134013;27;20216;-70
2023/06/19 05:13:12;;;;;;;13.77;9.27;;;;;;;;;;5133441;27;20247;-70
2023/06/19 05:15:39;;;;;;;11.15;7.20;;;;;;;;;;5134693;27;20316;-67
2023/06/19 05:18:07;;;;;;;9.48;7.00;;;;;;;;;;5117176;27;20220;-70
2023/06/19 05:20:34;;;;;;;9.43;7.30;;;;;;;;;;5132386;27;20193;-69
2023/06/19 05:23:01;;;;;;;13.32;7.65;;;;;;;;;;5134768;27;20197;-68
2023/06/19 05:25:29;;;;;;;8.32;6.55;;;;;;;;;;5135173;27;20204;-68
2023/06/19 05:27:56;;;;;;;8.73;6.35;;;;;;;;;;5135238;27;20209;-69
2023/06/19 05:30:23;;;;;;;9.43;7.30;;;;;;;;;;5135367;27;20683;-67
2023/06/19 05:32:50;;;;;;;10.07;6.68;;;;;;;;;;5134176;27;20209;-66
2023/06/19 05:35:18;;;;;;;9.02;5.88;;;;;;;;;;5134944;27;20597;-69
2023/06/19 05:37:45;;;;;;;8.38;6.28;;;;;;;;;;5134770;27;20205;-67
2023/06/19 05:40:12;;;;;;;7.22;5.60;;;;;;;;;;5135168;27;20348;-67
2023/06/19 05:42:40;;;;;;;7.78;6.28;;;;;;;;;;5135263;27;20197;-67
2023/06/19 05:45:07;;;;;;;11.85;6.63;;;;;;;;;;5135087;27;20233;-68
2023/06/19 05:47:35;;;;;;;12.20;6.50;;;;;;;;;;5134673;27;20656;-65
2023/06/19 05:50:02;;;;;;;7.57;6.10;;;;;;;;;;5134837;27;20201;-67
2023/06/19 05:52:30;;;;;;;7.07;5.55;;;;;;;;;;5134462;27;20640;-68
2023/06/19 05:54:58;;;;;;;9.55;6.38;;;;;;;;;;5134854;27;20225;-67
2023/06/19 05:57:25;;;;;;;8.07;5.93;;;;;;;;;;5134679;27;20553;-67
2023/06/19 05:59:52;;;;;;;7.20;5.53;;;;;;;;;;5134866;27;20224;-67
2023/06/19 06:02:20;;;;;;;6.82;4.85;;;;;;;;;;5134761;27;20197;-67
2023/06/19 06:04:47;;;;;;;6.82;5.35;;;;;;;;;;5134782;27;20714;-67
2023/06/19 06:07:14;;;;;;;7.28;5.57;;;;;;;;;;5135139;27;20197;-68
2023/06/19 06:09:41;;;;;;;8.63;6.57;;;;;;;;;;5134883;27;20289;-68
2023/06/19 06:12:09;;;;;;;7.97;6.03;;;;;;;;;;5134594;27;20652;-67
2023/06/19 06:14:35;;;;;;;7.30;5.78;;;;;;;;;;5134738;27;20303;-68
2023/06/19 06:17:05;;;;;;;8.35;5.40;;;;;;;;;;5134420;27;20586;-67
2023/06/19 06:19:32;;;;;;;6.80;5.63;;;;;;;;;;5134657;27;20193;-69
2023/06/19 06:21:59;;;;;;;7.28;5.47;;;;;;;;;;5134475;27;20795;-68
2023/06/19 06:24:27;;;;;;;5.97;4.72;;;;;;;;;;5134640;27;20322;-68
2023/06/19 06:26:54;;;;;;;9.02;4.38;;;;;;;;;;5134321;28;20254;-68
2023/06/19 06:29:21;;;;;;;6.78;4.97;;;;;;;;;;5134201;28;20207;-68
2023/06/19 06:31:49;;;;;;;5.97;4.60;;;;;;;;;;5134103;28;20208;-67
2023/06/19 06:34:16;;;;;;;5.93;4.38;;;;;;;;;;5134178;28;20224;-68
2023/06/19 06:36:43;;;;;;;8.40;4.10;;;;;;;;;;5134384;28;20228;-66
2023/06/19 06:39:30;;;;;;;8.48;4.20;;;;;;;;;;5134234;28;20201;-63
2023/06/19 06:41:57;;;;;;;7.15;4.90;;;;;;;;;;5134132;28;20741;-67
2023/06/19 06:44:24;;;;;;;6.38;4.47;;;;;;;;;;5136213;27;20246;-67
2023/06/19 06:46:52;;;;;;;6.03;4.75;;;;;;;;;;5138133;27;20197;-66
2023/06/19 06:49:20;;;;;;;5.88;4.68;;;;;;;;;;5138214;27;20197;-66
2023/06/19 06:51:47;;;;;;;7.10;5.07;;;;;;;;;;5138042;27;20209;-65
2023/06/19 06:54:14;;;;;;;5.72;4.82;;;;;;;;;;5137930;27;20714;-67
2023/06/19 06:56:42;;;;;;;8.05;5.65;;;;;;;;;;5138159;27;20200;-64
2023/06/19 06:59:08;;;;;;;9.40;4.70;;;;;;;;;;5138493;27;20200;-67
2023/06/19 07:01:36;;;;;;;7.93;5.70;;;;;;;;;;5137147;27;20201;-67
2023/06/19 07:04:03;;;;;;;6.93;5.15;;;;;;;;;;5138085;27;20316;-67
2023/06/19 07:06:30;;;;;;;8.25;6.25;;;;;;;;;;5138121;27;20212;-67
2023/06/19 07:08:57;;;;;;;7.25;5.38;;;;;;;;;;5137892;27;20193;-67
2023/06/19 07:11:24;;;;;;;6.32;4.70;;;;;;;;;;5119547;27;20553;-66
2023/06/19 07:13:51;;;;;;;9.85;5.25;;;;;;;;;;5137674;27;20225;-65
2023/06/19 07:16:19;;;;;;;6.28;4.93;;;;;;;;;;5137731;27;20212;-64
2023/06/19 07:18:46;;;;;;;7.78;4.95;;;;;;;;;;5138165;27;20197;-66
2023/06/19 07:21:14;;;;;;;6.18;4.45;;;;;;;;;;5137714;27;20768;-66
2023/06/19 07:23:42;;;;;;;6.15;4.90;;;;;;;;;;5137828;27;20625;-66
2023/06/19 07:26:10;;;;;;;7.85;6.10;;;;;;;;;;5137509;27;20205;-65
2023/06/19 07:28:37;;;;;;;6.88;5.30;;;;;;;;;;5137850;27;20225;-67
2023/06/19 07:31:05;;;;;;;6.40;5.15;;;;;;;;;;5119563;27;20201;-65
2023/06/19 07:33:32;;;;;;;7.22;5.45;;;;;;;;;;5136994;27;20197;-67
2023/06/19 07:35:59;;;;;;;5.97;5.10;;;;;;;;;;5137147;27;20240;-67
2023/06/19 07:38:26;;;;;;;6.68;5.28;;;;;;;;;;5137366;27;20280;-67
2023/06/19 07:40:53;;;;;;;8.98;5.70;;;;;;;;;;5137240;27;20547;-66
2023/06/19 07:43:22;;;;;;;8.82;5.10;;;;;;;;;;5137532;27;20208;-64
2023/06/19 07:45:49;;;;;;;6.82;5.28;;;;;;;;;;5136912;27;20232;-66
2023/06/19 07:48:16;;;;;;;6.50;4.78;;;;;;;;;;5137352;27;20332;-67
2023/06/19 07:50:43;;;;;;;5.82;4.95;;;;;;;;;;5137376;27;20205;-66
2023/06/19 07:53:10;;;;;;;7.82;5.40;;;;;;;;;;5137404;27;20197;-72
2023/06/19 07:55:38;;;;;;;7.22;5.75;;;;;;;;;;5136308;27;20225;-67
2023/06/19 07:58:04;;;;;;;9.80;6.10;;;;;;;;;;5137100;27;20257;-69
2023/06/19 08:00:32;;;;;;;8.38;5.72;;;;;;;;;;5137014;27;20209;-67
2023/06/19 08:02:59;;;;;;;7.40;6.10;;;;;;;;;;5136928;27;20202;-68
2023/06/19 08:05:26;;;;;;;7.30;6.03;;;;;;;;;;5137355;27;20244;-62
2023/06/19 08:07:53;;;;;;;7.10;5.68;;;;;;;;;;5136784;27;20292;-68
2023/06/19 08:10:20;;;;;;;8.02;6.03;;;;;;;;;;5137238;27;20212;-67
2023/06/19 08:12:47;;;;;;;8.10;5.53;;;;;;;;;;5137005;27;20193;-66
2023/06/19 08:15:17;;;;;;;7.10;5.80;;;;;;;;;;5136889;27;20221;-65
2023/06/19 08:17:44;;;;;;;7.50;6.22;;;;;;;;;;5136648;27;20806;-66
2023/06/19 08:20:12;;;;;;;8.15;6.20;;;;;;;;;;5136441;27;20679;-67
2023/06/19 08:22:39;;;;;;;8.77;6.10;;;;;;;;;;5136539;27;20648;-67
2023/06/19 08:25:06;;;;;;;7.35;5.70;;;;;;;;;;5136636;27;20205;-66
2023/06/19 08:27:33;;;;;;;10.70;6.43;;;;;;;;;;5136843;27;20225;-63
2023/06/19 08:30:01;;;;;;;8.38;6.10;;;;;;;;;;5136323;27;20552;-67
2023/06/19 08:32:28;;;;;;;7.60;5.78;;;;;;;;;;5136684;27;20556;-66
2023/06/19 08:34:55;;;;;;;8.77;6.63;;;;;;;;;;5136042;27;20225;-66
2023/06/19 08:37:22;;;;;;;10.25;5.80;;;;;;;;;;5136293;27;20205;-67
2023/06/19 08:39:50;;;;;;;10.05;6.05;;;;;;;;;;5136464;27;20201;-67
2023/06/19 08:42:17;;;;;;;8.18;5.85;;;;;;;;;;5136226;27;20652;-67
2023/06/19 08:44:44;;;;;;;9.20;5.90;;;;;;;;;;5136390;27;20216;-66
2023/06/19 08:47:11;;;;;;;8.20;6.05;;;;;;;;;;5117894;27;20652;-67
2023/06/19 08:49:39;;;;;;;8.18;6.10;;;;;;;;;;5135927;27;20213;-66
2023/06/19 08:52:07;;;;;;;7.25;5.93;;;;;;;;;;5136645;27;20652;-67
2023/06/19 08:54:43;;;;;;;8.73;6.45;;;;;;;;;;5136066;27;20238;-66
2023/06/19 08:57:12;;;;;;;7.50;6.28;;;;;;;;;;5135979;27;20648;-68
2023/06/19 08:59:39;;;;;;;7.38;5.88;;;;;;;;;;5135530;27;20193;-67
2023/06/19 09:02:06;;;;;;;6.95;5.55;;;;;;;;;;5117628;27;20262;-69
2023/06/19 09:04:34;;;;;;;9.55;5.38;;;;;;;;;;5117554;27;20232;-68
2023/06/19 09:07:03;;;;;;;9.50;6.15;;;;;;;;;;5135759;27;20288;-67
2023/06/19 09:09:46;;;;;;;8.68;6.10;;;;;;;;;;5117703;27;20555;-68
2023/06/19 09:12:14;;;;;;;8.95;6.35;;;;;;;;;;5135873;27;20197;-67
2023/06/19 09:14:46;;;;;;;7.50;6.13;;;;;;;;;;5117383;27;20217;-66
2023/06/19 09:17:17;;;;;;;7.68;6.22;;;;;;;;;;5135823;27;20212;-68
2023/06/19 09:19:51;;;;;;;8.90;6.97;;;;;;;;;;5135385;27;20254;-66
2023/06/19 09:22:21;;;;;;;8.43;6.18;;;;;;;;;;5135666;27;20736;-69
2023/06/19 09:24:49;;;;;;;8.00;6.18;;;;;;;;;;5135521;27;20201;-66
2023/06/19 09:27:19;;;;;;;7.75;6.10;;;;;;;;;;5135169;27;20641;-66
2023/06/19 09:29:50;;;;;;;7.40;5.93;;;;;;;;;;5135607;27;20245;-68
2023/06/19 09:32:20;;;;;;;7.35;5.40;;;;;;;;;;5135399;27;20572;-68
2023/06/19 09:34:51;;;;;;;6.60;5.22;;;;;;;;;;5116808;27;20213;-67
2023/06/19 09:37:28;;;;;;;7.40;6.07;;;;;;;;;;5135478;27;20170;-66
2023/06/19 09:40:13;;;;;;;8.68;6.03;;;;;;;;;;5117027;27;20193;-66
2023/06/19 09:42:42;;;;;;;7.53;5.90;;;;;;;;;;5134966;27;20207;-66
2023/06/19 09:45:19;;;;;;;8.63;5.95;;;;;;;;;;5117211;27;20346;-67
2023/06/19 09:47:46;;;;;;;6.95;5.53;;;;;;;;;;5116736;27;20202;-65
2023/06/19 09:50:17;;;;;;;9.45;5.85;;;;;;;;;;5135113;27;20197;-67
2023/06/19 09:52:51;;;;;;;8.55;6.32;;;;;;;;;;5116935;27;20203;-66
2023/06/19 09:55:19;;;;;;;6.70;5.50;;;;;;;;;;5134845;27;20590;-67
2023/06/19 09:57:48;;;;;;;8.38;5.57;;;;;;;;;;5135118;27;20250;-66
2023/06/19 10:00:21;;;;;;;9.43;6.65;;;;;;;;;;5117084;27;20201;-66
2023/06/19 10:02:49;;;;;;;7.45;5.28;;;;;;;;;;5134760;27;20205;-67
2023/06/19 10:05:28;;;;;;;7.55;6.10;;;;;;;;;;5116654;27;20244;-67
2023/06/19 10:07:59;;;;;;;9.40;5.55;;;;;;;;;;5134744;27;20258;-66
2023/06/19 10:10:27;;;;;;;6.25;5.38;;;;;;;;;;5134567;27;20209;-67
2023/06/19 10:13:10;;;;;;;7.18;5.60;;;;;;;;;;5134586;27;20231;-69
2023/06/19 10:15:42;;;;;;;9.15;6.10;;;;;;;;;;5134679;27;20224;-68
2023/06/19 10:18:18;;;;;;;7.30;5.53;;;;;;;;;;5134298;27;20251;-68
2023/06/19 10:20:46;;;;;;;6.95;5.70;;;;;;;;;;5134895;27;20228;-68
2023/06/19 10:23:17;;;;;;;7.70;6.05;;;;;;;;;;5134502;27;20563;-67
2023/06/19 10:25:47;;;;;;;7.80;5.93;;;;;;;;;;5134218;28;20204;-67
2023/06/19 10:28:27;;;;;;;8.07;6.40;;;;;;;;;;5134506;28;20280;-67
2023/06/19 10:31:06;;;;;;;9.07;6.20;;;;;;;;;;5134399;28;20275;-67
2023/06/19 10:33:34;;;;;;;8.70;6.03;;;;;;;;;;5134704;28;20203;-66
2023/06/19 10:36:17;;;;;;;8.45;6.15;;;;;;;;;;5134440;28;20228;-67
2023/06/19 10:38:47;;;;;;;8.35;6.13;;;;;;;;;;5134352;28;20719;-66
2023/06/19 10:41:27;;;;;;;7.32;5.85;;;;;;;;;;5134241;28;20201;-67
2023/06/19 10:44:03;;;;;;;6.60;5.63;;;;;;;;;;5134329;28;20205;-65
2023/06/19 10:46:33;;;;;;;7.53;5.53;;;;;;;;;;5134511;28;20201;-70
2023/06/19 10:49:04;;;;;;;6.50;5.40;;;;;;;;;;5134435;28;20205;-70
2023/06/19 10:51:34;;;;;;;5.55;4.95;;;;;;;;;;5134683;28;20194;-70
2023/06/19 10:54:02;;;;;;;6.32;5.15;;;;;;;;;;5134485;28;20283;-65
2023/06/19 10:56:29;;;;;;;6.65;5.00;;;;;;;;;;5133863;28;20274;-66
2023/06/19 10:59:00;;;;;;;6.88;5.30;;;;;;;;;;5134051;28;20284;-68
2023/06/19 11:01:47;;;;;;;6.85;5.18;;;;;;;;;;5134390;28;20205;-66
2023/06/19 11:04:15;;;;;;;5.72;4.82;;;;;;;;;;5134059;28;20721;-67
2023/06/19 11:06:44;;;;;;;5.75;4.93;;;;;;;;;;5134052;28;20209;-64
2023/06/19 11:09:12;;;;;;;7.70;4.95;;;;;;;;;;5134043;28;20204;-68
2023/06/19 11:11:48;;;;;;;6.28;5.10;;;;;;;;;;5134070;28;20555;-68
2023/06/19 11:14:16;;;;;;;7.68;5.65;;;;;;;;;;5133986;28;20563;-70
2023/06/19 11:16:47;;;;;;;9.10;5.38;;;;;;;;;;5133924;28;20274;-70
2023/06/19 11:19:17;;;;;;;7.70;5.72;;;;;;;;;;5133986;28;20720;-72
2023/06/19 11:21:46;;;;;;;9.02;4.90;;;;;;;;;;5133841;28;20645;-66
2023/06/19 11:24:14;;;;;;;6.53;5.45;;;;;;;;;;5134187;28;20201;-67
2023/06/19 11:26:49;;;;;;;6.30;5.10;;;;;;;;;;5133741;28;20212;-66
2023/06/19 11:29:18;;;;;;;8.48;5.60;;;;;;;;;;5134339;27;20246;-66
2023/06/19 11:31:47;;;;;;;8.50;5.78;;;;;;;;;;5137804;27;20210;-66
2023/06/19 11:34:15;;;;;;;7.15;5.63;;;;;;;;;;5137662;27;20201;-67
2023/06/19 11:36:44;;;;;;;8.20;5.18;;;;;;;;;;5137289;27;20229;-67
2023/06/19 11:39:14;;;;;;;6.53;5.47;;;;;;;;;;5119572;27;20204;-62
2023/06/19 11:41:45;;;;;;;6.95;5.55;;;;;;;;;;5102061;27;20205;-67
2023/06/19 11:44:13;;;;;;;9.38;5.55;;;;;;;;;;5118522;27;20227;-65
2023/06/19 11:46:42;;;;;;;6.55;5.03;;;;;;;;;;5118494;27;20204;-67
2023/06/19 11:49:16;;;;;;;7.35;5.38;;;;;;;;;;5118771;27;20190;-68
2023/06/19 11:51:44;;;;;;;5.90;4.82;;;;;;;;;;5136838;27;20279;-68
2023/06/19 11:54:14;;;;;;;7.45;5.20;;;;;;;;;;5136460;27;20193;-69
2023/06/19 11:56:42;;;;;;;6.07;4.85;;;;;;;;;;5135767;27;20217;-66
2023/06/19 11:59:09;;;;;;;8.23;5.28;;;;;;;;;;5136738;27;20221;-66
2023/06/19 12:01:37;;;;;;;6.35;5.30;;;;;;;;;;5137277;27;20425;-68
2023/06/19 12:04:04;;;;;;;8.30;5.85;;;;;;;;;;5136796;27;20233;-67
2023/06/19 12:06:35;;;;;;;6.15;5.05;;;;;;;;;;5137131;27;20201;-67
2023/06/19 12:09:04;;;;;;;6.70;4.93;;;;;;;;;;5136782;27;20205;-69
2023/06/19 12:11:31;;;;;;;6.35;5.22;;;;;;;;;;5135685;27;20198;-70
2023/06/19 12:13:59;;;;;;;6.45;4.72;;;;;;;;;;5136299;27;20652;-67
2023/06/19 12:16:28;;;;;;;10.00;5.18;;;;;;;;;;5136216;27;20213;-68
2023/06/19 12:18:55;;;;;;;5.50;4.82;;;;;;;;;;5135963;27;20198;-63
2023/06/19 12:21:22;;;;;;;6.55;5.13;;;;;;;;;;5134122;27;20193;-65
2023/06/19 12:24:03;;;;;;;8.15;5.75;;;;;;;;;;5136359;27;20209;-66
2023/06/19 12:26:36;;;;;;;6.28;5.32;;;;;;;;;;5138903;27;20201;-65
2023/06/19 12:29:04;;;;;;;8.23;5.78;;;;;;;;;;5102293;27;20188;-66
2023/06/19 12:31:32;;;;;;;6.47;4.63;;;;;;;;;;5135990;27;20216;-62
2023/06/19 12:34:01;;;;;;;7.25;4.95;;;;;;;;;;5135998;27;20272;-64
2023/06/19 12:36:47;;;;;;;6.20;4.97;;;;;;;;;;5118363;28;20237;-65
2023/06/19 12:39:14;;;;;;;9.80;5.78;;;;;;;;;;5118776;28;20718;-64
2023/06/19 12:41:42;;;;;;;6.70;4.88;;;;;;;;;;5118141;28;20202;-63
2023/06/19 12:44:09;;;;;;;5.55;4.53;;;;;;;;;;5117951;28;20688;-62
2023/06/19 12:46:36;;;;;;;5.20;4.40;;;;;;;;;;5128812;27;20412;-61
2023/06/19 12:49:04;;;;;;;5.03;4.00;;;;;;;;;;5119280;27;20259;-62
2023/06/19 12:51:31;;;;;;;5.13;3.92;;;;;;;;;;5133979;27;20612;-61
2023/06/19 12:53:58;;;;;;;6.43;4.45;;;;;;;;;;5134046;27;20223;-63
2023/06/19 12:56:25;;;;;;;4.70;3.92;;;;;;;;;;5133452;27;20233;-61
2023/06/19 12:58:52;;;;;;;6.35;4.43;;;;;;;;;;5131940;27;20221;-62
2023/06/19 13:01:19;;;;;;;9.65;3.83;;;;;;;;;;5134273;27;20290;-61
2023/06/19 13:03:47;;;;;;;4.80;3.95;;;;;;;;;;5134181;27;20270;-62
2023/06/19 13:06:14;;;;;;;5.38;4.03;;;;;;;;;;5134593;27;20292;-63
2023/06/19 13:08:42;;;;;;;5.38;3.88;;;;;;;;;;5133923;27;20304;-64
2023/06/19 13:11:10;;;;;;;4.82;4.07;;;;;;;;;;5133869;27;20221;-62
2023/06/19 13:13:37;;;;;;;6.30;4.45;;;;;;;;;;5134098;27;20221;-60
2023/06/19 13:16:04;;;;;;;7.90;5.32;;;;;;;;;;5133720;27;20221;-62
2023/06/19 13:18:31;;;;;;;5.07;4.35;;;;;;;;;;5134175;27;20312;-59
2023/06/19 13:20:59;;;;;;;5.60;4.47;;;;;;;;;;5134437;27;20221;-63
2023/06/19 13:23:26;;;;;;;4.88;3.85;;;;;;;;;;5134046;27;20221;-64
2023/06/19 13:25:53;;;;;;;5.32;4.10;;;;;;;;;;5133597;27;20218;-62
2023/06/19 13:28:20;;;;;;;5.55;4.10;;;;;;;;;;5134326;27;20587;-63
2023/06/19 13:30:49;;;;;;;7.15;3.60;;;;;;;;;;5133167;27;20266;-64
2023/06/19 13:33:16;;;;;;;5.00;3.78;;;;;;;;;;5134243;27;20692;-65
2023/06/19 13:35:44;;;;;;;5.18;3.85;;;;;;;;;;5134175;27;20262;-64
2023/06/19 13:38:11;;;;;;;5.68;3.65;;;;;;;;;;5133994;27;20225;-62
2023/06/19 13:40:38;;;;;;;3.95;3.55;;;;;;;;;;5132706;27;20244;-63
2023/06/19 13:43:06;;;;;;;4.63;3.90;;;;;;;;;;5133093;27;20312;-63
2023/06/19 13:45:34;;;;;;;4.95;4.10;;;;;;;;;;5132562;27;20602;-61
2023/06/19 13:48:01;;;;;;;4.63;3.67;;;;;;;;;;5133766;27;20300;-61
2023/06/19 13:50:29;;;;;;;3.90;3.30;;;;;;;;;;5134070;27;20213;-60
2023/06/19 13:52:56;;;;;;;5.50;4.57;;;;;;;;;;5130663;27;20308;-63
2023/06/19 13:55:23;;;;;;;6.93;5.20;;;;;;;;;;5130309;27;20236;-63
2023/06/19 13:57:50;;;;;;;5.95;5.20;;;;;;;;;;5133731;27;20233;-63
2023/06/19 14:00:18;;;;;;;6.95;5.50;;;;;;;;;;5133463;27;20221;-63
2023/06/19 14:02:45;;;;;;;6.90;5.18;;;;;;;;;;5132236;27;20233;-62
2023/06/19 14:05:16;;;;;;;6.43;4.90;;;;;;;;;;5133782;27;20318;-64
2023/06/19 14:07:43;;;;;;;5.50;4.78;;;;;;;;;;5131347;27;20687;-62
2023/06/19 14:10:10;;;;;;;4.75;3.85;;;;;;;;;;5133490;27;20217;-63
2023/06/19 14:12:37;;;;;;;5.32;4.43;;;;;;;;;;5133012;27;20699;-62
2023/06/19 14:15:07;;;;;;;5.18;4.05;;;;;;;;;;5133213;27;20217;-65
2023/06/19 14:17:35;;;;;;;5.00;4.43;;;;;;;;;;5133397;27;20256;-60
2023/06/19 14:20:04;;;;;;;5.28;4.40;;;;;;;;;;5133683;27;20624;-62
2023/06/19 14:22:31;;;;;;;5.45;4.65;;;;;;;;;;5133637;27;20295;-61
2023/06/19 14:25:01;;;;;;;6.05;4.18;;;;;;;;;;5133367;27;20228;-62
2023/06/19 14:27:29;;;;;;;6.15;4.65;;;;;;;;;;5133249;27;20579;-62
2023/06/19 14:29:57;;;;;;;5.95;4.80;;;;;;;;;;5133488;28;20220;-61
2023/06/19 14:32:24;;;;;;;5.80;4.47;;;;;;;;;;5117303;28;20749;-62
2023/06/19 14:34:51;;;;;;;6.60;4.30;;;;;;;;;;5132969;27;20266;-58
2023/06/19 14:37:19;;;;;;;5.72;4.65;;;;;;;;;;5133226;28;20231;-63
2023/06/19 14:39:46;;;;;;;5.65;4.65;;;;;;;;;;5130497;28;20209;-61
2023/06/19 14:42:13;;;;;;;5.95;4.82;;;;;;;;;;5133170;28;20229;-62
2023/06/19 14:44:41;;;;;;;6.35;4.47;;;;;;;;;;5129625;28;20217;-60
2023/06/19 14:47:08;;;;;;;6.13;4.88;;;;;;;;;;5133285;28;20217;-63